Flight Track Log - Related Links

Times and Time Zones

All times are in EDT time to prevent confusion due to time zone crossing. See the AFR1048 flight status page for this flight to view local times or setup timezone preferences in your user account.

Time Position Orientation Groundspeed Altitude Reporting Facility
EDT Latitude Longitude Course Direction KTS MPH feet Rate Location/Type
Sat 11:03:00 AM 48.0102 2.4810 183° South  Level Estimated
Sat 11:04:00 AM 47.9330 2.4758 183° South  Level Estimated
Sat 11:05:00 AM 47.8559 2.4706 183° South  Level Estimated
Sat 11:06:00 AM 47.7788 2.4654 183° South  Level Estimated
Sat 11:07:00 AM 47.7016 2.4603 183° South  Level Estimated
Sat 11:08:00 AM 47.6245 2.4551 183° South  Level Estimated
Sat 11:09:00 AM 47.5474 2.4500 183° South  Level Estimated
Sat 11:10:00 AM 47.4703 2.4449 183° South  Level Estimated
Sat 11:11:00 AM 47.3931 2.4398 183° South  Level Estimated
Sat 11:12:00 AM 47.3160 2.4347 183° South  Level Estimated
Sat 11:13:00 AM 47.2389 2.4297 183° South  Level Estimated
Sat 11:14:00 AM 47.1617 2.4246 183° South  Level Estimated
Sat 11:15:00 AM 47.0846 2.4196 183° South  Level Estimated
Sat 11:16:00 AM 47.0075 2.4146 183° South  Level Estimated
Sat 11:17:00 AM 46.9304 2.4096 183° South  Level Estimated
Sat 11:18:00 AM 46.8532 2.4046 183° South  Level Estimated
Sat 11:19:00 AM 46.7761 2.3996 183° South  Level Estimated
Sat 11:20:00 AM 46.6990 2.3947 183° South  Level Estimated
Sat 11:21:00 AM 46.6218 2.3897 183° South  Level Estimated
Sat 11:22:00 AM 46.5447 2.3848 183° South  Level Estimated
Sat 11:23:00 AM 46.4676 2.3799 183° South  Level Estimated
Sat 11:24:00 AM 46.3799 2.3743 183° South  Level Estimated
Sat 11:25:00 AM 46.2923 2.3687 183° South  Level Estimated
Sat 11:26:00 AM 46.2046 2.3632 183° South  Level Estimated
Sat 11:27:00 AM 46.1170 2.3577 182° South  Level Estimated
Sat 11:28:00 AM 46.0293 2.3522 182° South  Level Estimated
Sat 11:29:00 AM 45.9417 2.3467 182° South  Level Estimated
Sat 11:30:00 AM 45.8540 2.3412 182° South  Level Estimated
Sat 11:31:00 AM 45.7664 2.3358 182° South  Level Estimated
Sat 11:32:00 AM 45.6787 2.3303 182° South  Level Estimated
Sat 11:33:00 AM 45.5911 2.3249 182° South  Level Estimated
Sat 11:34:00 AM 45.5034 2.3195 182° South  Level Estimated
Sat 11:35:00 AM 45.4158 2.3142 182° South  Level Estimated
Sat 11:36:00 AM 45.3281 2.3088 182° South  Level Estimated
Sat 11:37:00 AM 45.2405 2.3034 182° South  Level Estimated
Sat 11:38:00 AM 45.1528 2.2981 182° South  Level Estimated
Sat 11:39:00 AM 45.0652 2.2928 182° South  Level Estimated
Sat 11:40:00 AM 44.9775 2.2875 182° South  Level Estimated
Sat 11:41:00 AM 44.8899 2.2822 182° South  Level Estimated
Sat 11:42:00 AM 44.8022 2.2769 182° South  Level Estimated
Sat 11:43:00 AM 44.7146 2.2717 182° South  Level Estimated
Sat 11:44:00 AM 44.6269 2.2664 182° South  Level Estimated
Sat 11:45:00 AM 44.5393 2.2612 182° South  Level Estimated
Sat 11:46:00 AM 44.4516 2.2560 182° South  Level Estimated
Sat 11:47:00 AM 44.3640 2.2508 182° South  Level Estimated
Sat 11:48:00 AM 44.2763 2.2457 182° South  Level Estimated
Sat 11:49:00 AM 44.1887 2.2405 182° South  Level Estimated
Sat 11:50:00 AM 44.1010 2.2354 182° South  Level Estimated
Sat 11:51:00 AM 44.0134 2.2302 182° South  Level Estimated
Sat 11:52:00 AM 43.9257 2.2251 182° South  Level Estimated
Sat 11:53:00 AM 43.8381 2.2200 182° South  Level Estimated
Sat 11:54:00 AM 43.7428 2.2145 182° South  Level Estimated
Sat 11:55:00 AM 43.6476 2.2090 182° South  Level Estimated
Sat 11:56:00 AM 43.5524 2.2035 182° South  Level Estimated
Sat 11:57:00 AM 43.4571 2.1981 182° South  Level Estimated
Sat 11:58:00 AM 43.3619 2.1926 182° South  Level Estimated
Sat 11:59:00 AM 43.2667 2.1872 182° South  Level Estimated
Sat 12:00:00 PM 43.1715 2.1818 182° South  Level Estimated
Sat 12:01:00 PM 43.0762 2.1764 182° South  Level Estimated
Sat 12:02:00 PM 42.9810 2.1710 182° South  Level Estimated
Sat 12:03:00 PM 42.8858 2.1656 182° South  Level Estimated
Sat 12:04:00 PM 42.7905 2.1603 182° South  Level Estimated
Sat 12:05:00 PM 42.6953 2.1549 182° South  Level Estimated
Sat 12:06:00 PM 42.6001 2.1496 182° South  Level Estimated
Sat 12:07:00 PM 42.5048 2.1443 182° South  Level Estimated
Sat 12:08:00 PM 42.4096 2.1390 182° South  Level Estimated
Sat 12:09:00 PM 42.3144 2.1338 182° South  Level Estimated
Sat 12:10:00 PM 42.2192 2.1285 182° South  Level Estimated
Sat 12:11:00 PM 42.1239 2.1233 182° South  Level Estimated
Sat 12:12:00 PM 42.0287 2.1181 182° South  Level Estimated
Sat 12:13:00 PM 41.9335 2.1128 182° South  Level Estimated
Sat 12:14:00 PM 41.8382 2.1077 182° South  Level Estimated
Sat 12:15:00 PM 41.7430 2.1025 182° South  Level Estimated
Sat 12:16:00 PM 41.6477 2.0973 182° South  Level Estimated
Sat 12:17:00 PM 41.5525 2.0922 182° South  Level Estimated
Sat 12:18:00 PM 41.4573 2.0871 182° South  Level Estimated
Sat 12:19:00 PM 41.3608 2.0819 182° South  Level Estimated
Sat 12:20:00 PM 41.2971 2.0785 182° South  Level Estimated
Sat 12:21:00 PM 41.2971 2.0785 124° Southeast  Level Estimated
Sat 12:22:00 PM 41.2971 2.0785 124° Southeast  Level Estimated
Sat 12:23:00 PM 41.2971 2.0785 124° Southeast  Level Estimated

Login

Don't have an account? Register now (free) for customized features, flight alerts, and more!